Dades meteomassalio
Diari Summary for Marc 22, 2017 Units:  English    Metric   Both
« Previous Day
Next Day »
Diari Semanal Mensual Anual Personalitzat
  Maxima: Minima: Mijana:
Temperatura: TemperatureC °F 5.5 °F 11.1 °F
Rosada: DewpointC °F 3.1 °F 5.5 °F
Humitat: Humidity % 55 % 69 %
Velocitat del vent: WindSpeedKMH mph 0.0 mph 7.1 mph
Racha vent: WindSpeedGustKMH mph - -
Vent:- - South
Pressio: PressurehPa in 1006.7 in -
Pluja: 0.0 in    
Historical Graphs
 
 
Tabular Data for Marc 22, 2017
Time Temperature Dew Point Pressure Wind Wind Speed Wind Gust Humidity Rainfall Rate (Hourly) solar Conditions
TemperatureC °F DewpointC °F PressurehPa in Calm     Humidity % HourlyPrecipMM in SolarRadiationWatts/m^2 W/m2 Conditions
00:03 10.9 °F 4.8 °F 1016.8 in West 18.5 mph 18.5 mph 66 % 0.0 in 0.0 W/m2 CLR
00:08 10.9 °F 4.8 °F 1016.8 in WNW 20.4 mph 20.4 mph 66 % 0.0 in 0.0 W/m2 CLR
00:13 10.8 °F 4.7 °F 1016.8 in West 18.5 mph 18.5 mph 66 % 0.0 in 0.0 W/m2 CLR
00:18 10.9 °F 4.8 °F 1016.8 in West 22.2 mph 22.2 mph 66 % 0.0 in 0.0 W/m2 CLR
00:23 10.8 °F 4.9 °F 1016.8 in WNW 18.5 mph 18.5 mph 67 % 0.0 in 0.0 W/m2 CLR
00:29 10.8 °F 4.9 °F 1016.8 in West 16.7 mph 16.7 mph 67 % 0.0 in 0.0 W/m2 CLR
00:34 10.8 °F 4.9 °F 1016.8 in West 16.7 mph 16.7 mph 67 % 0.0 in 0.0 W/m2 CLR
00:39 10.8 °F 4.9 °F 1016.5 in West 20.4 mph 20.4 mph 67 % 0.0 in 0.0 W/m2 CLR
00:44 10.8 °F 5.1 °F 1016.5 in West 20.4 mph 20.4 mph 68 % 0.0 in 0.0 W/m2 CLR
00:49 10.7 °F 5.0 °F 1016.5 in West 18.5 mph 18.5 mph 68 % 0.0 in 0.0 W/m2 CLR
00:54 10.7 °F 5.0 °F 1016.5 in West 22.2 mph 22.2 mph 68 % 0.0 in 0.0 W/m2 CLR
00:59 10.7 °F 5.0 °F 1016.5 in West 20.4 mph 20.4 mph 68 % 0.0 in 0.0 W/m2 CLR
01:04 10.6 °F 4.9 °F 1016.5 in West 18.5 mph 18.5 mph 68 % 0.0 in 0.0 W/m2 CLR
01:09 10.6 °F 4.9 °F 1016.5 in West 16.7 mph 16.7 mph 68 % 0.0 in 0.0 W/m2 CLR
01:14 10.6 °F 5.1 °F 1016.5 in WNW 16.7 mph 16.7 mph 69 % 0.0 in 0.0 W/m2 CLR
01:19 10.5 °F 5.1 °F 1016.5 in WNW 14.8 mph 14.8 mph 69 % 0.0 in 0.0 W/m2 CLR
01:24 10.4 °F 5.0 °F 1016.5 in WNW 16.7 mph 16.7 mph 69 % 0.0 in 0.0 W/m2 CLR
01:29 10.4 °F 4.9 °F 1016.5 in WNW 18.5 mph 18.5 mph 69 % 0.0 in 0.0 W/m2 CLR
01:34 10.4 °F 4.9 °F 1016.1 in WNW 18.5 mph 18.5 mph 69 % 0.0 in 0.0 W/m2 CLR
01:39 10.5 °F 5.1 °F 1016.1 in WNW 18.5 mph 18.5 mph 69 % 0.0 in 0.0 W/m2 CLR
01:44 10.6 °F 4.9 °F 1016.1 in WNW 18.5 mph 18.5 mph 68 % 0.0 in 0.0 W/m2 CLR
01:49 10.6 °F 5.1 °F 1016.1 in WNW 14.8 mph 14.8 mph 69 % 0.0 in 0.0 W/m2 CLR
01:54 10.4 °F 5.0 °F 1016.1 in NW 14.8 mph 14.8 mph 69 % 0.0 in 0.0 W/m2 CLR
01:59 10.3 °F 4.8 °F 1016.1 in WNW 14.8 mph 14.8 mph 69 % 0.0 in 0.0 W/m2 CLR
02:04 10.2 °F 4.7 °F 1016.1 in WNW 16.7 mph 16.7 mph 69 % 0.0 in 0.0 W/m2 CLR
02:09 10.2 °F 4.8 °F 1016.1 in WNW 19.3 mph 19.3 mph 69 % 0.0 in 0.0 W/m2 CLR
02:14 10.2 °F 4.8 °F 1016.1 in WNW 13.0 mph 13.0 mph 69 % 0.0 in 0.0 W/m2 CLR
02:19 10.2 °F 4.7 °F 1016.1 in WNW 5.6 mph 5.6 mph 69 % 0.0 in 0.0 W/m2 CLR
02:24 10.1 °F 4.6 °F 1016.1 in West 5.6 mph 5.6 mph 69 % 0.0 in 0.0 W/m2 CLR
02:29 10.0 °F 4.6 °F 1016.1 in WNW 11.1 mph 11.1 mph 69 % 0.0 in 0.0 W/m2 CLR
02:34 10.0 °F 4.6 °F 1016.1 in West 18.5 mph 18.5 mph 69 % 0.0 in 0.0 W/m2 CLR
02:39 10.1 °F 4.7 °F 1016.1 in West 16.1 mph 16.1 mph 69 % 0.0 in 0.0 W/m2 CLR
02:40 10.1 °F 4.6 °F 1016.1 in West 16.7 mph 16.7 mph 69 % 0.0 in 0.0 W/m2 CLR
02:45 10.1 °F 4.6 °F 1016.1 in WSW 14.8 mph 14.8 mph 69 % 0.0 in 0.0 W/m2 CLR
02:50 10.0 °F 4.6 °F 1015.8 in West 11.3 mph 11.3 mph 69 % 0.0 in 0.0 W/m2 CLR
02:55 9.9 °F 4.7 °F 1015.8 in WSW 13.0 mph 13.0 mph 70 % 0.0 in 0.0 W/m2 CLR
03:00 9.8 °F 4.6 °F 1015.8 in West 5.6 mph 5.6 mph 70 % 0.0 in 0.0 W/m2 CLR
03:05 9.7 °F 4.4 °F 1015.8 in WSW 7.4 mph 7.4 mph 70 % 0.0 in 0.0 W/m2 CLR
03:10 9.3 °F 4.3 °F 1015.5 in WSW 7.4 mph 7.4 mph 71 % 0.0 in 0.0 W/m2 CLR
03:15 9.2 °F 4.4 °F 1015.5 in West 5.6 mph 5.6 mph 72 % 0.0 in 0.0 W/m2 CLR
03:20 9.1 °F 4.5 °F 1015.5 in West 7.4 mph 7.4 mph 73 % 0.0 in 0.0 W/m2 CLR
03:25 9.1 °F 4.4 °F 1015.5 in West 5.6 mph 5.6 mph 73 % 0.0 in 0.0 W/m2 CLR
03:30 8.8 °F 4.2 °F 1015.5 in WNW 7.4 mph 7.4 mph 73 % 0.0 in 0.0 W/m2 CLR
03:35 8.6 °F 4.2 °F 1015.5 in West 5.6 mph 5.6 mph 74 % 0.0 in 0.0 W/m2 CLR
03:40 8.8 °F 4.4 °F 1015.5 in West 5.6 mph 5.6 mph 74 % 0.0 in 0.0 W/m2 CLR
03:45 8.9 °F 4.5 °F 1015.5 in WSW 5.6 mph 5.6 mph 74 % 0.0 in 0.0 W/m2 CLR
03:50 8.9 °F 4.3 °F 1015.5 in Calm     73 % 0.0 in 0.0 W/m2 CLR
03:55 8.7 °F 4.2 °F 1015.5 in Calm     73 % 0.0 in 0.0 W/m2 CLR
04:00 8.4 °F 4.0 °F 1015.5 in Calm     74 % 0.0 in 0.0 W/m2 CLR
04:05 7.9 °F 3.8 °F 1015.5 in Calm     75 % 0.0 in 0.0 W/m2 CLR
04:10 7.6 °F 3.8 °F 1015.5 in Calm     77 % 0.0 in 0.0 W/m2 CLR
04:15 7.4 °F 3.8 °F 1015.5 in Calm     78 % 0.0 in 0.0 W/m2 CLR
04:20 7.3 °F 3.9 °F 1015.5 in Calm     79 % 0.0 in 0.0 W/m2 CLR
04:25 7.1 °F 3.7 °F 1015.5 in Calm     79 % 0.0 in 0.0 W/m2 CLR
04:30 6.6 °F 3.4 °F 1015.1 in Calm     80 % 0.0 in 0.0 W/m2 CLR
04:35 6.4 °F 3.6 °F 1015.1 in Calm     82 % 0.0 in 0.0 W/m2 CLR
04:40 6.5 °F 3.8 °F 1015.1 in Calm     83 % 0.0 in 0.0 W/m2 CLR
04:45 6.6 °F 3.8 °F 1015.1 in Calm     82 % 0.0 in 0.0 W/m2 CLR
04:50 6.5 °F 3.7 °F 1015.1 in Calm     82 % 0.0 in 0.0 W/m2 CLR
04:55 6.3 °F 3.5 °F 1015.1 in Calm     82 % 0.0 in 0.0 W/m2 CLR
05:00 6.2 °F 3.4 °F 1015.1 in Calm     82 % 0.0 in 0.0 W/m2 CLR
05:05 6.1 °F 3.4 °F 1015.1 in Calm     83 % 0.0 in 0.0 W/m2 CLR
05:10 6.0 °F 3.3 °F 1015.1 in Calm     83 % 0.0 in 0.0 W/m2 CLR
05:15 5.9 °F 3.2 °F 1015.1 in Calm     83 % 0.0 in 0.0 W/m2 CLR
05:20 5.8 °F 3.3 °F 1015.1 in Calm     84 % 0.0 in 0.0 W/m2 CLR
05:25 5.6 °F 3.1 °F 1015.1 in Calm     84 % 0.0 in 0.0 W/m2 CLR
05:30 5.6 °F 3.3 °F 1014.8 in Calm     85 % 0.0 in 0.0 W/m2 CLR
05:35 5.6 °F 3.2 °F 1014.8 in Calm     85 % 0.0 in 0.0 W/m2 CLR
05:40 5.6 °F 3.2 °F 1014.8 in Calm     85 % 0.0 in 0.0 W/m2 CLR
05:45 5.6 °F 3.2 °F 1014.8 in Calm     85 % 0.0 in 0.0 W/m2 CLR
05:50 5.6 °F 3.2 °F 1014.8 in Calm     85 % 0.0 in 0.0 W/m2 CLR
05:55 5.6 °F 3.3 °F 1014.8 in Calm     85 % 0.0 in 0.0 W/m2 CLR
06:01 5.6 °F 3.3 °F 1014.8 in Calm     85 % 0.0 in 0.0 W/m2 CLR
06:06 5.6 °F 3.2 °F 1014.8 in Calm     85 % 0.0 in 0.0 W/m2 CLR
06:11 5.6 °F 3.4 °F 1014.8 in Calm     86 % 0.0 in 0.0 W/m2 CLR
06:16 5.6 °F 3.4 °F 1014.8 in Calm     86 % 0.0 in 0.0 W/m2 CLR
06:20 5.5 °F 3.3 °F 1014.4 in Calm     86 % 0.0 in 0.0 W/m2 CLR
06:26 5.5 °F 3.3 °F 1014.8 in Calm     86 % 0.0 in 0.0 W/m2 CLR
06:31 5.5 °F 3.3 °F 1014.8 in Calm     86 % 0.0 in 0.0 W/m2 CLR
06:36 5.5 °F 3.3 °F 1014.4 in Calm     86 % 0.0 in 0.0 W/m2 CLR
06:41 5.6 °F 3.4 °F 1014.4 in Calm     86 % 0.0 in 0.0 W/m2 CLR
06:46 5.6 °F 3.6 °F 1014.4 in Calm     87 % 0.0 in 0.0 W/m2 CLR
06:51 5.6 °F 3.6 °F 1014.4 in Calm     87 % 0.0 in 0.0 W/m2 OVC
06:56 5.7 °F 3.7 °F 1014.4 in Calm     87 % 0.0 in 7.0 W/m2 OVC
07:01 5.7 °F 3.7 °F 1014.4 in Calm     87 % 0.0 in 11.0 W/m2 OVC
07:06 5.8 °F 3.8 °F 1014.4 in Calm     87 % 0.0 in 12.0 W/m2 BKN
07:11 5.9 °F 3.7 °F 1014.4 in Calm     86 % 0.0 in 16.0 W/m2 BKN
07:16 5.9 °F 3.8 °F 1014.4 in Calm     86 % 0.0 in 18.0 W/m2 BKN
07:22 6.1 °F 4.1 °F 1014.4 in Calm     87 % 0.0 in 21.0 W/m2 BKN
07:27 6.3 °F 4.2 °F 1014.4 in Calm     86 % 0.0 in 18.0 W/m2 BKN
07:32 6.4 °F 4.3 °F 1014.4 in Calm     86 % 0.0 in 16.0 W/m2 BKN
07:37 6.5 °F 4.2 °F 1014.8 in Calm     85 % 0.0 in 16.0 W/m2 BKN
07:42 6.5 °F 4.2 °F 1014.4 in Calm     85 % 0.0 in 19.0 W/m2 BKN
07:47 6.5 °F 4.2 °F 1014.8 in Calm     85 % 0.0 in 23.0 W/m2 BKN
07:52 6.6 °F 4.4 °F 1014.8 in Calm     86 % 0.0 in 26.0 W/m2 BKN
07:57 6.7 °F 4.5 °F 1014.8 in Calm     86 % 0.0 in 26.0 W/m2 BKN
08:02 6.7 °F 4.6 °F 1014.8 in Calm     86 % 0.0 in 26.0 W/m2 BKN
08:07 6.7 °F 4.6 °F 1014.8 in Calm     86 % 0.0 in 28.0 W/m2 BKN
08:12 6.8 °F 4.6 °F 1014.8 in Calm     86 % 0.0 in 30.0 W/m2 BKN
08:17 6.9 °F 4.7 °F 1014.8 in Calm     86 % 0.0 in 30.0 W/m2 BKN
08:22 7.0 °F 4.8 °F 1014.8 in Calm     86 % 0.0 in 35.0 W/m2 BKN
08:27 7.1 °F 4.7 °F 1015.1 in Calm     85 % 0.0 in 58.0 W/m2 BKN
08:32 7.1 °F 4.8 °F 1014.8 in Calm     85 % 0.0 in 69.0 W/m2 SCT
08:37 7.2 °F 4.8 °F 1014.8 in Calm     85 % 0.0 in 63.0 W/m2 SCT
08:42 7.3 °F 4.9 °F 1014.8 in Calm     85 % 0.0 in 70.0 W/m2 FEW
08:47 7.4 °F 5.1 °F 1015.1 in Calm     85 % 0.0 in 81.0 W/m2 FEW
08:52 7.4 °F 5.1 °F 1014.8 in Calm     85 % 0.0 in 81.0 W/m2 FEW
08:57 7.6 °F 5.2 °F 1014.8 in Calm     85 % 0.0 in 79.0 W/m2 FEW
09:02 7.7 °F 5.1 °F 1014.8 in Calm     84 % 0.0 in 88.0 W/m2 FEW
09:07 7.8 °F 5.3 °F 1014.8 in Calm     84 % 0.0 in 90.0 W/m2 CLR
09:12 8.0 °F 5.4 °F 1014.8 in Calm     84 % 0.0 in 90.0 W/m2 CLR
09:17 8.1 °F 5.6 °F 1015.1 in Calm     84 % 0.0 in 109.0 W/m2 CLR
09:22 8.3 °F 5.6 °F 1015.1 in Calm     83 % 0.0 in 127.0 W/m2 CLR
09:27 8.4 °F 5.9 °F 1015.1 in Calm     84 % 0.0 in 142.0 W/m2 CLR
09:32 8.7 °F 5.9 °F 1014.8 in Calm     83 % 0.0 in 158.0 W/m2 CLR
09:37 8.9 °F 6.0 °F 1015.1 in Calm     82 % 0.0 in 167.0 W/m2 CLR
09:42 9.1 °F 5.9 °F 1014.8 in Calm     81 % 0.0 in 186.0 W/m2 CLR
09:47 9.3 °F 6.4 °F 1014.8 in Calm     82 % 0.0 in 241.0 W/m2 CLR
09:52 9.7 °F 6.6 °F 1014.8 in Calm     81 % 0.0 in 251.0 W/m2 CLR
09:57 10.0 °F 6.7 °F 1014.8 in Calm     80 % 0.0 in 274.0 W/m2 CLR
10:02 10.3 °F 6.8 °F 1014.8 in Calm     79 % 0.0 in 396.0 W/m2 CLR
10:07 10.8 °F 6.9 °F 1014.8 in Calm     77 % 0.0 in 323.0 W/m2 CLR
10:12 11.2 °F 6.9 °F 1014.8 in Calm     75 % 0.0 in 255.0 W/m2 CLR
10:17 11.6 °F 5.9 °F 1014.8 in NW 16.7 mph 16.7 mph 68 % 0.0 in 227.0 W/m2 CLR
10:22 11.9 °F 5.5 °F 1014.8 in NNW 9.3 mph 9.3 mph 65 % 0.0 in 229.0 W/m2 CLR
10:27 11.9 °F 5.1 °F 1014.4 in NW 9.3 mph 9.3 mph 63 % 0.0 in 221.0 W/m2 CLR
10:32 11.9 °F 5.3 °F 1014.4 in NW 5.6 mph 5.6 mph 64 % 0.0 in 234.0 W/m2 CLR
10:37 12.1 °F 5.4 °F 1014.1 in Calm     64 % 0.0 in 262.0 W/m2 CLR
10:42 12.3 °F 5.7 °F 1014.1 in North 5.6 mph 5.6 mph 64 % 0.0 in 267.0 W/m2 CLR
10:47 12.4 °F 5.6 °F 1014.4 in North 7.4 mph 7.4 mph 63 % 0.0 in 243.0 W/m2 CLR
10:52 12.3 °F 5.3 °F 1014.4 in Calm     62 % 0.0 in 234.0 W/m2 CLR
10:57 12.4 °F 5.6 °F 1014.4 in NW 7.4 mph 7.4 mph 63 % 0.0 in 232.0 W/m2 CLR
11:02 12.3 °F 5.2 °F 1014.4 in NNW 5.6 mph 5.6 mph 62 % 0.0 in 225.0 W/m2 CLR
11:07 12.2 °F 5.4 °F 1014.4 in Calm     63 % 0.0 in 218.0 W/m2 CLR
11:12 12.3 °F 5.7 °F 1014.1 in Calm     64 % 0.0 in 218.0 W/m2 CLR
11:17 12.3 °F 5.5 °F 1014.1 in Calm     63 % 0.0 in 216.0 W/m2 CLR
11:22 12.3 °F 5.5 °F 1014.1 in Calm     63 % 0.0 in 218.0 W/m2 CLR
11:27 12.3 °F 5.3 °F 1014.4 in NE 5.6 mph 5.6 mph 62 % 0.0 in 230.0 W/m2 CLR
11:32 12.4 °F 5.3 °F 1014.1 in Calm     62 % 0.0 in 237.0 W/m2 CLR
11:37 12.4 °F 5.3 °F 1014.1 in Calm     62 % 0.0 in 227.0 W/m2 CLR
11:42 12.4 °F 5.3 °F 1014.1 in North 5.6 mph 5.6 mph 62 % 0.0 in 214.0 W/m2 CLR
11:47 12.4 °F 5.3 °F 1014.1 in Calm     62 % 0.0 in 213.0 W/m2 CLR
11:52 12.3 °F 5.0 °F 1014.1 in NE 7.4 mph 7.4 mph 61 % 0.0 in 220.0 W/m2 CLR
11:57 12.3 °F 5.0 °F 1013.8 in Calm     61 % 0.0 in 220.0 W/m2 CLR
12:02 12.3 °F 4.8 °F 1013.8 in ENE 7.4 mph 7.4 mph 60 % 0.0 in 234.0 W/m2 CLR
12:07 12.3 °F 4.8 °F 1013.8 in NE 5.6 mph 5.6 mph 60 % 0.0 in 241.0 W/m2 CLR
12:12 12.3 °F 4.6 °F 1013.8 in NNE 6.4 mph 6.4 mph 59 % 0.0 in 250.0 W/m2 CLR
12:17 12.3 °F 5.0 °F 1013.8 in NE 5.6 mph 5.6 mph 61 % 0.0 in 276.0 W/m2 CLR
12:22 12.4 °F 4.9 °F 1013.8 in NE 7.4 mph 7.4 mph 60 % 0.0 in 327.0 W/m2 CLR
12:27 12.6 °F 5.0 °F 1013.8 in ENE 9.3 mph 9.3 mph 60 % 0.0 in 346.0 W/m2 CLR
12:32 12.6 °F 5.0 °F 1013.8 in NE 9.3 mph 9.3 mph 60 % 0.0 in 327.0 W/m2 CLR
12:37 12.5 °F 4.9 °F 1013.4 in NNE 7.4 mph 7.4 mph 60 % 0.0 in 329.0 W/m2 CLR
12:42 12.5 °F 4.9 °F 1013.1 in East 9.3 mph 9.3 mph 60 % 0.0 in 373.0 W/m2 CLR
12:47 12.4 °F 5.1 °F 1013.1 in NE 5.6 mph 5.6 mph 61 % 0.0 in 455.0 W/m2 CLR
12:52 12.5 °F 4.9 °F 1013.1 in ENE 7.4 mph 7.4 mph 60 % 0.0 in 406.0 W/m2 CLR
12:57 12.8 °F 5.4 °F 1013.1 in NE 7.4 mph 7.4 mph 61 % 0.0 in 439.0 W/m2 CLR
13:02 12.9 °F 5.1 °F 1013.1 in ENE 5.6 mph 5.6 mph 59 % 0.0 in 376.0 W/m2 CLR
13:07 13.1 °F 5.2 °F 1013.1 in ENE 4.8 mph 4.8 mph 59 % 0.0 in 388.0 W/m2 CLR
13:12 13.1 °F 5.3 °F 1013.1 in NNE 9.3 mph 9.3 mph 59 % 0.0 in 378.0 W/m2 CLR
13:17 13.1 °F 5.3 °F 1012.8 in NE 5.6 mph 5.6 mph 59 % 0.0 in 320.0 W/m2 CLR
13:22 13.1 °F 5.7 °F 1012.8 in Calm     61 % 0.0 in 292.0 W/m2 CLR
13:27 13.0 °F 5.7 °F 1012.8 in NE 7.4 mph 7.4 mph 61 % 0.0 in 330.0 W/m2 CLR
13:32 13.0 °F 5.4 °F 1012.4 in NE 5.6 mph 5.6 mph 60 % 0.0 in 302.0 W/m2 CLR
13:37 13.0 °F 5.4 °F 1012.4 in NE 5.6 mph 5.6 mph 60 % 0.0 in 295.0 W/m2 CLR
13:42 12.9 °F 5.3 °F 1012.4 in Calm     60 % 0.0 in 292.0 W/m2 CLR
13:47 12.8 °F 5.5 °F 1012.4 in North 5.6 mph   61 % 0.0 in 334.0 W/m2 CLR
13:52 12.9 °F 5.6 °F 1012.4 in Calm     61 % 0.0 in 316.0 W/m2 CLR
13:57 13.1 °F 5.2 °F 1012.4 in ENE 3.7 mph   59 % 0.0 in 299.0 W/m2 CLR
14:02 13.2 °F 5.3 °F 1012.1 in NE 5.6 mph 5.6 mph 59 % 0.0 in 301.0 W/m2 CLR
14:07 13.2 °F 5.3 °F 1012.1 in NE 5.6 mph 5.6 mph 59 % 0.0 in 260.0 W/m2 CLR
14:12 13.2 °F 5.3 °F 1011.7 in Calm     59 % 0.0 in 271.0 W/m2 CLR
14:17 13.2 °F 5.1 °F 1011.7 in NE 3.7 mph   58 % 0.0 in 248.0 W/m2 CLR
14:22 13.2 °F 5.4 °F 1011.7 in NE 5.6 mph 5.6 mph 59 % 0.0 in 272.0 W/m2 CLR
14:28 13.2 °F 5.6 °F 1011.7 in NNE 5.6 mph 5.6 mph 60 % 0.0 in 341.0 W/m2 CLR
14:33 13.4 °F 5.8 °F 1011.7 in NNE 5.6 mph 5.6 mph 60 % 0.0 in 373.0 W/m2 CLR
14:38 13.6 °F 5.7 °F 1011.4 in ENE 9.3 mph 9.3 mph 59 % 0.0 in 417.0 W/m2 CLR
14:43 13.9 °F 6.3 °F 1011.4 in NNE 8.0 mph 8.0 mph 60 % 0.0 in 784.0 W/m2 CLR
14:48 14.2 °F 6.3 °F 1011.1 in Calm   0.2 mph 59 % 0.0 in 424.0 W/m2 CLR
14:53 14.2 °F 5.8 °F 1011.1 in NE 5.6 mph 5.6 mph 57 % 0.0 in 396.0 W/m2 CLR
14:58 14.1 °F 5.9 °F 1011.1 in ENE 8.0 mph 8.0 mph 58 % 0.0 in 403.0 W/m2 CLR
15:03 14.2 °F 6.0 °F 1010.7 in ENE 5.6 mph 5.6 mph 58 % 0.0 in 341.0 W/m2 CLR
15:08 14.2 °F 5.8 °F 1010.7 in ENE 9.3 mph 9.3 mph 57 % 0.0 in 450.0 W/m2 CLR
15:13 14.3 °F 6.1 °F 1010.4 in ENE 7.4 mph 7.4 mph 58 % 0.0 in 701.0 W/m2 CLR
15:18 14.6 °F 6.4 °F 1010.4 in East 13.0 mph 13.0 mph 58 % 0.0 in 698.0 W/m2 CLR
15:23 14.7 °F 6.5 °F 1010.0 in East 9.3 mph 9.3 mph 58 % 0.0 in 664.0 W/m2 CLR
15:28 15.0 °F 6.3 °F 1010.0 in ESE 13.0 mph 13.0 mph 56 % 0.0 in 628.0 W/m2 CLR
15:33 15.1 °F 6.3 °F 1009.7 in ESE 14.8 mph 14.8 mph 56 % 0.0 in 610.0 W/m2 CLR
15:38 15.2 °F 6.4 °F 1009.7 in SE 13.0 mph 13.0 mph 56 % 0.0 in 598.0 W/m2 CLR
15:43 15.3 °F 6.3 °F 1009.7 in East 16.7 mph 16.7 mph 55 % 0.0 in 584.0 W/m2 CLR
15:48 15.2 °F 6.2 °F 1009.4 in ENE 13.0 mph 13.0 mph 55 % 0.0 in 564.0 W/m2 CLR
15:53 15.4 °F 6.7 °F 1009.4 in ENE 14.8 mph 14.8 mph 56 % 0.0 in 555.0 W/m2 CLR
15:58 15.6 °F 6.8 °F 1009.4 in East 7.4 mph 7.4 mph 56 % 0.0 in 548.0 W/m2 CLR
16:03 15.8 °F 7.0 °F 1009.0 in East 14.8 mph 14.8 mph 56 % 0.0 in 543.0 W/m2 CLR
16:08 15.9 °F 6.8 °F 1008.7 in East 13.0 mph 13.0 mph 55 % 0.0 in 541.0 W/m2 CLR
16:13 15.9 °F 6.9 °F 1008.7 in ESE 13.0 mph 13.0 mph 55 % 0.0 in 181.0 W/m2 CLR
16:18 15.8 °F 7.3 °F 1008.7 in East 9.3 mph 9.3 mph 57 % 0.0 in 169.0 W/m2 CLR
16:23 15.8 °F 7.6 °F 1008.4 in ESE 11.1 mph 11.1 mph 58 % 0.0 in 193.0 W/m2 CLR
16:28 15.9 °F 8.2 °F 1008.4 in ESE 13.0 mph 13.0 mph 60 % 0.0 in 225.0 W/m2 CLR
16:33 16.1 °F 8.6 °F 1008.0 in East 9.3 mph 9.3 mph 61 % 0.0 in 413.0 W/m2 CLR
16:38 16.3 °F 8.5 °F 1008.0 in ESE 14.8 mph 14.8 mph 60 % 0.0 in 466.0 W/m2 CLR
16:43 16.4 °F 8.8 °F 1008.0 in ESE 7.4 mph 7.4 mph 61 % 0.0 in 425.0 W/m2 CLR
16:48 16.6 °F 8.8 °F 1007.7 in East 11.3 mph 11.3 mph 60 % 0.0 in 399.0 W/m2 CLR
16:53 16.6 °F 8.8 °F 1007.7 in ENE 5.6 mph 5.6 mph 60 % 0.0 in 294.0 W/m2 CLR
16:58 16.6 °F 8.6 °F 1007.7 in ESE 13.0 mph 13.0 mph 59 % 0.0 in 360.0 W/m2 CLR
17:03 16.6 °F 8.6 °F 1007.7 in East 14.8 mph 14.8 mph 59 % 0.0 in 343.0 W/m2 CLR
17:08 16.5 °F 8.4 °F 1007.3 in ESE 16.1 mph 16.1 mph 59 % 0.0 in 345.0 W/m2 CLR
17:13 16.4 °F 8.1 °F 1007.3 in East 16.7 mph 16.7 mph 58 % 0.0 in 225.0 W/m2 CLR
17:18 16.3 °F 8.2 °F 1007.3 in ESE 24.1 mph 24.1 mph 59 % 0.0 in 102.0 W/m2 CLR
17:23 16.1 °F 8.1 °F 1007.3 in East 18.5 mph 18.5 mph 59 % 0.0 in 95.0 W/m2 CLR
17:28 16.2 °F 8.2 °F 1007.3 in ESE 16.1 mph 16.1 mph 59 % 0.0 in 274.0 W/m2 CLR
17:33 16.4 °F 8.1 °F 1007.3 in ESE 18.5 mph 18.5 mph 58 % 0.0 in 251.0 W/m2 CLR
17:38 16.4 °F 8.2 °F 1007.3 in ESE 20.4 mph 20.4 mph 58 % 0.0 in 272.0 W/m2 CLR
17:43 16.4 °F 7.8 °F 1007.3 in ESE 18.5 mph 18.5 mph 57 % 0.0 in 243.0 W/m2 CLR
17:48 16.3 °F 7.8 °F 1007.3 in East 18.5 mph 18.5 mph 57 % 0.0 in 214.0 W/m2 CLR
17:53 16.2 °F 7.9 °F 1007.3 in ESE 18.5 mph 18.5 mph 58 % 0.0 in 199.0 W/m2 CLR
17:58 16.1 °F 8.1 °F 1007.0 in ENE 11.1 mph 11.1 mph 59 % 0.0 in 176.0 W/m2 CLR
18:03 16.1 °F 8.1 °F 1007.0 in East 14.8 mph 14.8 mph 59 % 0.0 in 162.0 W/m2 CLR
18:08 16.1 °F 8.1 °F 1007.0 in East 20.4 mph 20.4 mph 59 % 0.0 in 153.0 W/m2 CLR
18:13 16.1 °F 7.8 °F 1007.0 in ESE 16.7 mph 16.7 mph 58 % 0.0 in 120.0 W/m2 CLR
18:18 16.0 °F 8.0 °F 1007.0 in ESE 16.7 mph 16.7 mph 59 % 0.0 in 98.0 W/m2 CLR
18:19 16.0 °F 8.0 °F 1007.0 in SSE 13.0 mph 13.0 mph 59 % 0.0 in 97.0 W/m2 CLR
18:24 15.8 °F 7.8 °F 1007.0 in ESE 14.8 mph 14.8 mph 59 % 0.0 in 98.0 W/m2 CLR
18:29 15.7 °F 8.0 °F 1007.0 in ESE 13.0 mph 13.0 mph 60 % 0.0 in 69.0 W/m2 FEW
18:34 15.6 °F 8.1 °F 1006.7 in SSE 13.0 mph 13.0 mph 61 % 0.0 in 54.0 W/m2 SCT
18:39 15.4 °F 8.2 °F 1006.7 in ESE 11.1 mph 11.1 mph 62 % 0.0 in 44.0 W/m2 BKN
18:44 15.3 °F 8.1 °F 1006.7 in SE 16.7 mph 16.7 mph 62 % 0.0 in 35.0 W/m2 BKN
18:49 15.2 °F 7.7 °F 1007.0 in SSE 13.0 mph 13.0 mph 61 % 0.0 in 26.0 W/m2 BKN
18:54 15.1 °F 7.9 °F 1007.0 in SE 16.7 mph 16.7 mph 62 % 0.0 in 19.0 W/m2 BKN
18:59 15.0 °F 7.8 °F 1007.0 in SE 13.0 mph 13.0 mph 62 % 0.0 in 12.0 W/m2 BKN
19:04 14.8 °F 7.8 °F 1007.0 in SE 11.1 mph 11.1 mph 63 % 0.0 in 7.0 W/m2 BKN
19:09 14.7 °F 7.7 °F 1007.0 in SE 13.0 mph 13.0 mph 63 % 0.0 in 5.0 W/m2 OVC
19:14 14.5 °F 7.8 °F 1007.0 in SSE 14.8 mph 14.8 mph 64 % 0.0 in 0.0 W/m2 OVC
19:19 14.4 °F 7.9 °F 1007.3 in SE 14.8 mph 14.8 mph 65 % 0.0 in 0.0 W/m2 OVC
19:24 14.3 °F 8.0 °F 1007.3 in SSE 14.8 mph 14.8 mph 66 % 0.0 in 0.0 W/m2 CLR
19:29 14.2 °F 7.9 °F 1007.3 in SSE 13.0 mph 13.0 mph 66 % 0.0 in 0.0 W/m2 CLR
19:34 14.0 °F 7.9 °F 1007.3 in SE 16.7 mph 16.7 mph 67 % 0.0 in 0.0 W/m2 CLR
19:39 13.9 °F 7.8 °F 1007.3 in SSE 14.8 mph 14.8 mph 67 % 0.0 in 0.0 W/m2 CLR
19:44 13.8 °F 7.8 °F 1007.3 in SSE 14.8 mph 14.8 mph 67 % 0.0 in 0.0 W/m2 CLR
19:49 13.7 °F 7.7 °F 1007.3 in South 13.0 mph 13.0 mph 67 % 0.0 in 0.0 W/m2 CLR
19:54 13.7 °F 7.7 °F 1007.3 in South 4.8 mph 4.8 mph 67 % 0.0 in 0.0 W/m2 CLR
19:59 13.6 °F 7.4 °F 1007.7 in SSW 7.4 mph 7.4 mph 66 % 0.0 in 0.0 W/m2 CLR
20:04 13.5 °F 7.3 °F 1007.7 in South 1.9 mph   66 % 0.0 in 0.0 W/m2 CLR
20:09 13.5 °F 7.1 °F 1007.7 in South 9.3 mph 9.3 mph 65 % 0.0 in 0.0 W/m2 CLR
20:14 13.6 °F 7.1 °F 1007.7 in SSW 5.6 mph 5.6 mph 65 % 0.0 in 0.0 W/m2 CLR
20:18 13.6 °F 7.1 °F 1007.7 in Calm     65 % 0.0 in 0.0 W/m2 CLR
20:20 13.6 °F 6.9 °F 1007.7 in SSW 7.4 mph 7.4 mph 64 % 0.0 in 0.0 W/m2 CLR
20:25 13.6 °F 6.7 °F 1007.7 in SW 5.6 mph 5.6 mph 63 % 0.0 in 0.0 W/m2 CLR
20:26 13.6 °F 6.7 °F 1007.7 in SW 5.6 mph 5.6 mph 63 % 0.0 in 0.0 W/m2 CLR
20:27 13.6 °F 6.7 °F 1007.7 in Calm     63 % 0.0 in 0.0 W/m2 CLR
20:29 13.6 °F 6.7 °F 1007.7 in Calm     63 % 0.0 in 0.0 W/m2 CLR
20:31 13.6 °F 6.7 °F 1007.7 in Calm     63 % 0.0 in 0.0 W/m2 CLR
20:36 13.4 °F 6.5 °F 1007.7 in Calm     63 % 0.0 in 0.0 W/m2 CLR
20:37 13.4 °F 6.5 °F 1007.7 in Calm     63 % 0.0 in 0.0 W/m2 CLR
20:38 13.3 °F 6.4 °F 1007.7 in Calm     63 % 0.0 in 0.0 W/m2 CLR
20:43 12.9 °F 6.5 °F 1008.0 in Calm     65 % 0.0 in 0.0 W/m2 CLR
20:48 12.6 °F 6.4 °F 1008.0 in West 1.9 mph   66 % 0.0 in 0.0 W/m2 CLR
20:53 12.6 °F 6.4 °F 1008.0 in Calm     66 % 0.0 in 0.0 W/m2 CLR
20:57 12.7 °F 6.3 °F 1008.0 in West 8.0 mph 8.0 mph 65 % 0.0 in 0.0 W/m2 CLR
21:02 13.0 °F 6.3 °F 1008.0 in Calm     64 % 0.0 in 0.0 W/m2 CLR
21:05 13.1 °F 6.4 °F 1008.4 in Calm     64 % 0.0 in 0.0 W/m2 CLR
21:10 13.1 °F 6.2 °F 1008.4 in Calm     63 % 0.0 in 0.0 W/m2 CLR
21:15 13.1 °F 6.2 °F 1008.4 in SSW 12.9 mph 12.9 mph 63 % 0.0 in 0.0 W/m2 CLR
21:20 13.2 °F 6.1 °F 1008.4 in WSW 3.7 mph   62 % 0.0 in 0.0 W/m2 CLR
21:25 13.1 °F 5.9 °F 1008.4 in West 7.4 mph 7.4 mph 62 % 0.0 in 0.0 W/m2 CLR
21:30 13.1 °F 6.0 °F 1008.7 in Calm     62 % 0.0 in 0.0 W/m2 CLR
21:33 13.1 °F 6.0 °F 1008.7 in West 1.9 mph 1.9 mph 62 % 0.0 in 0.0 W/m2 CLR
21:35 13.1 °F 6.0 °F 1008.7 in WSW 3.7 mph 3.7 mph 62 % 0.0 in 0.0 W/m2 CLR
21:40 13.1 °F 5.8 °F 1008.7 in Calm     61 % 0.0 in 0.0 W/m2 CLR
21:45 13.0 °F 5.7 °F 1008.7 in Calm     61 % 0.0 in 0.0 W/m2 CLR
21:50 12.8 °F 5.7 °F 1008.7 in NNW 11.3 mph 11.3 mph 62 % 0.0 in 0.0 W/m2 CLR
21:55 12.3 °F 5.9 °F 1009.4 in NW 20.4 mph 20.4 mph 65 % 0.0 in 0.0 W/m2 CLR
22:00 12.1 °F 5.9 °F 1009.7 in North 31.5 mph 31.5 mph 66 % 0.0 in 0.0 W/m2 CLR
22:05 11.4 °F 5.3 °F 1009.7 in North 22.2 mph 22.2 mph 66 % 0.0 in 0.0 W/m2 CLR
22:08 11.0 °F 5.1 °F 1009.7 in North 29.6 mph 29.6 mph 67 % 0.0 in 0.0 W/m2 CLR
22:10 10.7 °F 5.1 °F 1010.0 in North 24.1 mph 24.1 mph 68 % 0.0 in 0.0 W/m2 CLR
22:15 10.1 °F 4.4 °F 1010.0 in NW 27.8 mph 27.8 mph 68 % 0.0 in 0.0 W/m2 CLR
22:20 9.7 °F 4.5 °F 1010.0 in North 20.4 mph 20.4 mph 70 % 0.0 in 0.0 W/m2 CLR
22:25 9.5 °F 4.3 °F 1010.0 in North 31.5 mph 31.5 mph 70 % 0.0 in 0.0 W/m2 CLR
22:30 9.3 °F 4.1 °F 1010.0 in NNW 22.2 mph 22.2 mph 70 % 0.0 in 0.0 W/m2 CLR
22:35 9.2 °F 4.1 °F 1010.0 in Calm     70 % 0.0 in 0.0 W/m2 CLR
22:40 9.2 °F 4.2 °F 1010.0 in Calm     71 % 0.0 in 0.0 W/m2 CLR
22:45 9.1 °F 4.1 °F 1010.0 in Calm     71 % 0.0 in 0.0 W/m2 CLR
22:50 9.1 °F 4.1 °F 1010.4 in Calm     71 % 0.0 in 0.0 W/m2 CLR
22:55 8.8 °F 4.1 °F 1010.4 in Calm     72 % 0.0 in 0.0 W/m2 CLR
23:00 8.7 °F 4.1 °F 1010.0 in Calm     73 % 0.0 in 0.0 W/m2 CLR
23:05 8.5 °F 3.9 °F 1010.4 in Calm     73 % 0.0 in 0.0 W/m2 CLR
23:10 8.3 °F 3.9 °F 1010.4 in Calm     74 % 0.0 in 0.0 W/m2 CLR
23:15 8.2 °F 4.1 °F 1010.4 in Calm     75 % 0.0 in 0.0 W/m2 CLR
23:20 8.2 °F 4.1 °F 1010.4 in Calm     75 % 0.0 in 0.0 W/m2 CLR
23:25 8.2 °F 4.1 °F 1010.4 in Calm     75 % 0.0 in 0.0 W/m2 CLR
23:30 8.2 °F 4.1 °F 1010.7 in Calm     75 % 0.0 in 0.0 W/m2 CLR
23:35 8.0 °F 3.8 °F 1010.7 in Calm     75 % 0.0 in 0.0 W/m2 CLR
23:40 7.6 °F 3.8 °F 1010.7 in Calm     77 % 0.0 in 0.0 W/m2 CLR
23:45 7.5 °F 3.9 °F 1010.7 in Calm     78 % 0.0 in 0.0 W/m2 CLR
23:50 7.7 °F 4.1 °F 1010.7 in Calm     78 % 0.0 in 0.0 W/m2 CLR
23:55 7.7 °F 4.1 °F 1010.7 in Calm     78 % 0.0 in 0.0 W/m2 CLR
Lo Temps de Massalio
Compliments of Weather Underground - 1.25 mb